createdAt,value
2018-06-27T00:01:10.593Z,5.70
2018-06-27T00:03:42.124Z,6.90
2018-06-27T00:06:10.895Z,5.50
2018-06-27T00:08:37.819Z,6.03
2018-06-27T00:11:04.720Z,6.10
2018-06-27T00:13:31.602Z,5.37
2018-06-27T00:16:00.325Z,5.30
2018-06-27T00:18:27.802Z,4.90
2018-06-27T00:20:55.646Z,5.20
2018-06-27T00:23:28.590Z,5.57
2018-06-27T00:25:56.574Z,5.20
2018-06-27T00:28:27.424Z,5.80
2018-06-27T00:30:54.393Z,5.43
2018-06-27T00:33:21.291Z,5.13
2018-06-27T00:35:52.269Z,5.10
2018-06-27T00:38:20.402Z,5.30
2018-06-27T00:40:47.830Z,5.20
2018-06-27T00:43:15.718Z,5.10
2018-06-27T00:45:46.599Z,4.47
2018-06-27T00:48:13.492Z,4.57
2018-06-27T00:50:42.530Z,5.07
2018-06-27T00:53:11.523Z,4.70
2018-06-27T00:55:39.286Z,4.87
2018-06-27T00:58:14.391Z,4.67
2018-06-27T01:00:43.297Z,4.83
2018-06-27T01:03:17.425Z,4.63
2018-06-27T01:05:44.807Z,5.90
2018-06-27T01:08:11.734Z,5.10
2018-06-27T01:10:38.703Z,5.00
2018-06-27T01:13:09.412Z,4.83
2018-06-27T01:15:36.358Z,5.63
2018-06-27T01:18:03.321Z,4.77
2018-06-27T01:20:32.351Z,5.70
2018-06-27T01:23:02.478Z,4.97
2018-06-27T01:25:31.314Z,5.30
2018-06-27T01:27:59.866Z,5.50
2018-06-27T01:30:29.766Z,5.73
2018-06-27T01:32:59.730Z,5.33
2018-06-27T01:35:27.694Z,4.80
2018-06-27T01:37:57.618Z,4.50
2018-06-27T01:40:26.438Z,5.17
2018-06-27T01:42:55.440Z,4.33
2018-06-27T01:45:22.390Z,4.47
2018-06-27T01:47:51.902Z,4.90
2018-06-27T01:50:18.879Z,4.93
2018-06-27T01:52:58.629Z,4.90
2018-06-27T01:55:26.600Z,5.03
2018-06-27T01:57:53.454Z,4.33
2018-06-27T02:00:24.746Z,5.00
2018-06-27T02:02:57.782Z,4.40
2018-06-27T02:05:27.338Z,5.50
2018-06-27T02:07:56.802Z,5.60
2018-06-27T02:10:29.438Z,5.47
2018-06-27T02:12:56.914Z,5.10
2018-06-27T02:15:24.350Z,5.10
2018-06-27T02:17:54.817Z,4.73
2018-06-27T02:20:22.801Z,5.00
2018-06-27T02:22:49.788Z,5.30
2018-06-27T02:25:20.342Z,5.60
2018-06-27T02:27:47.855Z,5.80
2018-06-27T02:30:21.806Z,5.33
2018-06-27T02:32:51.687Z,5.10
2018-06-27T02:35:19.819Z,5.10
2018-06-27T02:37:47.774Z,6.10
2018-06-27T02:40:22.006Z,5.10
2018-06-27T02:42:49.903Z,5.93
2018-06-27T02:45:16.781Z,4.80
2018-06-27T02:47:46.690Z,5.63
2018-06-27T02:50:19.158Z,5.10
2018-06-27T02:52:48.914Z,4.70
2018-06-27T02:55:19.846Z,5.23
2018-06-27T02:57:48.347Z,5.50
2018-06-27T03:00:16.353Z,4.70
2018-06-27T03:02:45.723Z,4.67
2018-06-27T03:05:13.426Z,4.50
2018-06-27T03:07:43.842Z,5.60
2018-06-27T03:10:10.803Z,5.23
2018-06-27T03:12:48.107Z,4.10
2018-06-27T03:15:17.126Z,4.40
2018-06-27T03:17:47.542Z,4.90
2018-06-27T03:20:15.614Z,4.57
2018-06-27T03:22:43.914Z,4.70
2018-06-27T03:25:13.557Z,5.50
2018-06-27T03:27:51.577Z,5.70
2018-06-27T03:30:19.354Z,5.70
2018-06-27T03:32:46.990Z,6.43
2018-06-27T03:35:14.477Z,5.53
2018-06-27T03:37:41.950Z,4.90
2018-06-27T03:40:08.895Z,5.40
2018-06-27T03:42:40.506Z,5.50
2018-06-27T03:45:13.485Z,5.57
2018-06-27T03:47:41.394Z,5.37
2018-06-27T03:50:11.954Z,4.63
2018-06-27T03:52:42.834Z,5.17
2018-06-27T03:55:14.910Z,4.73
2018-06-27T03:57:46.701Z,4.10
2018-06-27T04:00:19.826Z,4.73
2018-06-27T04:02:50.735Z,4.03
2018-06-27T04:05:26.203Z,4.50
2018-06-27T04:07:53.159Z,3.90
2018-06-27T04:10:20.134Z,4.20
2018-06-27T04:12:49.146Z,4.03
2018-06-27T04:15:18.036Z,3.43
2018-06-27T04:17:54.694Z,4.47
2018-06-27T04:20:24.675Z,4.37
2018-06-27T04:22:51.554Z,4.47
2018-06-27T04:25:21.509Z,3.80
2018-06-27T04:27:50.554Z,4.27
2018-06-27T04:30:18.519Z,4.33
2018-06-27T04:32:45.359Z,4.93
2018-06-27T04:35:12.213Z,3.73
2018-06-27T04:37:39.211Z,3.73
2018-06-27T04:40:06.954Z,3.87
2018-06-27T04:42:33.878Z,3.87
2018-06-27T04:45:09.098Z,3.60
2018-06-27T04:47:37.967Z,4.00
2018-06-27T04:50:10.172Z,4.10
2018-06-27T04:52:37.988Z,4.30
2018-06-27T04:55:04.983Z,4.10
2018-06-27T04:57:32.547Z,4.03
2018-06-27T04:59:59.480Z,4.30
2018-06-27T05:02:26.982Z,3.67
2018-06-27T05:04:55.491Z,3.83
2018-06-27T05:07:22.452Z,4.20
2018-06-27T05:09:49.394Z,4.77
2018-06-27T05:12:17.379Z,4.80
2018-06-27T05:14:44.325Z,5.07
2018-06-27T05:17:11.288Z,5.37
2018-06-27T05:19:45.518Z,4.63
2018-06-27T05:22:14.055Z,4.85
2018-06-27T05:24:40.976Z,5.25
2018-06-27T05:27:07.922Z,4.20
2018-06-27T05:29:46.310Z,4.50
2018-06-27T05:32:13.213Z,4.10
2018-06-27T05:34:40.166Z,4.43
2018-06-27T05:37:11.129Z,4.70
2018-06-27T05:39:38.962Z,4.27
2018-06-27T05:42:13.935Z,5.33
2018-06-27T05:44:40.911Z,4.77
2018-06-27T05:47:09.606Z,4.10
2018-06-27T05:49:40.189Z,3.87
2018-06-27T05:52:09.123Z,4.87
2018-06-27T05:54:39.150Z,4.60
2018-06-27T05:57:09.549Z,3.90
2018-06-27T05:59:37.621Z,4.40
2018-06-27T06:02:05.610Z,4.57
2018-06-27T06:04:33.661Z,4.17
2018-06-27T06:07:04.492Z,4.53
2018-06-27T06:09:32.624Z,4.17
2018-06-27T06:12:05.924Z,4.50
2018-06-27T06:14:39.614Z,3.77
2018-06-27T06:17:08.625Z,3.87
2018-06-27T06:19:35.578Z,4.57
2018-06-27T06:22:02.554Z,3.70
2018-06-27T06:24:30.073Z,4.07
2018-06-27T06:26:57.594Z,3.73
2018-06-27T06:29:25.585Z,3.87
2018-06-27T06:31:56.510Z,4.10
2018-06-27T06:34:27.839Z,4.43
2018-06-27T06:36:55.562Z,3.63
2018-06-27T06:39:24.433Z,4.23
2018-06-27T06:41:52.424Z,3.70
2018-06-27T06:44:21.012Z,4.27
2018-06-27T06:46:50.046Z,3.43
2018-06-27T06:49:18.623Z,3.70
2018-06-27T06:51:45.618Z,3.70
2018-06-27T06:54:14.178Z,3.53
2018-06-27T06:56:42.045Z,3.13
2018-06-27T06:59:19.577Z,3.57
2018-06-27T07:01:46.722Z,3.47
2018-06-27T07:04:16.590Z,3.53
2018-06-27T07:06:43.508Z,3.10
2018-06-27T07:09:12.298Z,3.70
2018-06-27T07:11:42.274Z,3.40
2018-06-27T07:14:11.122Z,3.20
2018-06-27T07:16:40.950Z,3.97
2018-06-27T07:19:08.542Z,4.07
2018-06-27T07:21:35.459Z,3.43
2018-06-27T07:24:14.719Z,3.60
2018-06-27T07:26:42.543Z,3.50
2018-06-27T07:29:12.514Z,3.30
2018-06-27T07:31:39.502Z,3.57
2018-06-27T07:34:08.330Z,3.10
2018-06-27T07:36:42.494Z,3.30
2018-06-27T07:39:12.446Z,3.60
2018-06-27T07:41:40.138Z,3.57
2018-06-27T07:44:07.078Z,3.23
2018-06-27T07:46:39.171Z,3.70
2018-06-27T07:49:06.128Z,3.33
2018-06-27T07:51:33.087Z,3.43
2018-06-27T07:54:00.036Z,3.47
2018-06-27T07:56:27.075Z,3.23
2018-06-27T07:58:54.535Z,3.10
2018-06-27T08:01:22.551Z,3.10
2018-06-27T08:03:50.094Z,3.10
2018-06-27T08:06:17.063Z,2.93
2018-06-27T08:08:44.331Z,3.70
2018-06-27T08:11:18.414Z,3.00
2018-06-27T08:13:45.323Z,2.97
2018-06-27T08:16:12.279Z,3.20
2018-06-27T08:18:42.973Z,3.17
2018-06-27T08:21:10.917Z,3.20
2018-06-27T08:23:37.930Z,3.73
2018-06-27T08:26:04.925Z,2.60
2018-06-27T08:28:31.781Z,3.17
2018-06-27T08:30:59.658Z,3.40
2018-06-27T08:33:28.159Z,4.17
2018-06-27T08:35:55.131Z,3.50
2018-06-27T08:38:22.039Z,3.80
2018-06-27T08:40:49.047Z,4.17
2018-06-27T08:43:16.018Z,4.40
2018-06-27T08:45:45.699Z,4.00
2018-06-27T08:48:15.230Z,4.33
2018-06-27T08:50:46.163Z,4.67
2018-06-27T08:53:15.619Z,4.30
2018-06-27T08:55:43.202Z,4.33
2018-06-27T08:58:12.186Z,4.00
2018-06-27T09:00:39.197Z,4.23
2018-06-27T09:03:06.617Z,4.40
2018-06-27T09:05:37.126Z,4.27
2018-06-27T09:08:04.099Z,4.90
2018-06-27T09:10:32.087Z,4.60
2018-06-27T09:13:00.674Z,4.10
2018-06-27T09:15:27.651Z,3.60
2018-06-27T09:17:58.981Z,5.20
2018-06-27T09:20:27.687Z,4.00
2018-06-27T09:22:54.643Z,4.07
2018-06-27T09:25:21.610Z,5.00
2018-06-27T09:27:48.703Z,4.73
2018-06-27T09:30:16.150Z,4.93
2018-06-27T09:32:43.707Z,4.20
2018-06-27T09:35:13.629Z,4.33
2018-06-27T09:37:41.246Z,4.10
2018-06-27T09:40:11.226Z,5.50
2018-06-27T09:42:38.727Z,5.07
2018-06-27T09:45:07.211Z,4.33
2018-06-27T09:47:34.658Z,4.27
2018-06-27T09:50:01.752Z,4.27
2018-06-27T09:52:28.682Z,4.47
2018-06-27T09:54:57.159Z,4.10
2018-06-27T09:57:27.111Z,4.30
2018-06-27T09:59:54.054Z,5.03
2018-06-27T10:02:28.699Z,4.77
2018-06-27T10:04:55.659Z,4.40
2018-06-27T10:07:26.195Z,4.60
2018-06-27T10:09:59.416Z,4.20
2018-06-27T10:12:27.201Z,3.53
2018-06-27T10:14:54.128Z,3.63
2018-06-27T10:17:21.172Z,3.43
2018-06-27T10:19:48.041Z,3.30
2018-06-27T10:22:16.150Z,2.90
2018-06-27T10:24:43.704Z,3.60
2018-06-27T10:27:11.182Z,3.60
2018-06-27T10:29:38.146Z,3.80
2018-06-27T10:32:05.135Z,3.23
2018-06-27T10:34:33.123Z,3.37
2018-06-27T10:37:00.052Z,3.50
2018-06-27T10:39:28.044Z,3.43
2018-06-27T10:41:54.975Z,3.70
2018-06-27T10:44:23.729Z,3.40
2018-06-27T10:46:55.708Z,3.73
2018-06-27T10:49:23.215Z,3.30
2018-06-27T10:51:50.169Z,3.50
2018-06-27T10:54:21.318Z,3.40
2018-06-27T10:56:48.295Z,3.40
2018-06-27T10:59:16.167Z,3.20
2018-06-27T11:01:43.159Z,3.10
2018-06-27T11:04:13.130Z,3.10
2018-06-27T11:06:43.070Z,2.67
2018-06-27T11:09:10.112Z,2.93
2018-06-27T11:11:39.759Z,2.83
2018-06-27T11:14:06.784Z,2.50
2018-06-27T11:16:35.343Z,2.73
2018-06-27T11:19:03.230Z,2.70
2018-06-27T11:21:30.155Z,3.00
2018-06-27T11:23:57.122Z,3.10
2018-06-27T11:26:24.088Z,2.53
2018-06-27T11:28:55.746Z,2.77
2018-06-27T11:31:22.707Z,3.00
2018-06-27T11:33:49.672Z,2.43
2018-06-27T11:36:16.591Z,2.50
2018-06-27T11:38:45.342Z,2.63
2018-06-27T11:41:13.289Z,2.90
2018-06-27T11:43:40.302Z,2.70
2018-06-27T11:46:08.232Z,2.20
2018-06-27T11:48:35.182Z,2.30
2018-06-27T11:51:03.158Z,2.43
2018-06-27T11:53:30.112Z,2.30
2018-06-27T11:55:57.087Z,1.57
2018-06-27T11:58:24.082Z,2.23
2018-06-27T12:00:51.694Z,1.47
2018-06-27T12:03:21.774Z,1.30
2018-06-27T12:05:50.232Z,1.57
2018-06-27T12:08:17.186Z,1.53
2018-06-27T12:10:44.167Z,1.37
2018-06-27T12:13:11.084Z,1.40
2018-06-27T12:15:38.138Z,1.27
2018-06-27T12:18:08.858Z,1.27
2018-06-27T12:20:37.694Z,1.63
2018-06-27T12:23:05.221Z,1.57
2018-06-27T12:25:32.043Z,1.70
2018-06-27T12:27:59.774Z,2.20
2018-06-27T12:30:27.283Z,1.70
2018-06-27T12:32:54.263Z,1.27
2018-06-27T12:35:21.787Z,1.37
2018-06-27T12:37:50.903Z,1.40
2018-06-27T12:40:18.886Z,1.50
2018-06-27T12:42:46.810Z,1.80
2018-06-27T12:45:14.214Z,1.63
2018-06-27T12:47:41.802Z,2.10
2018-06-27T12:50:10.262Z,1.43
2018-06-27T12:52:37.978Z,1.93
2018-06-27T12:55:08.007Z,1.70
2018-06-27T12:57:34.983Z,1.80
2018-06-27T13:00:02.334Z,1.80
2018-06-27T13:02:29.256Z,1.50
2018-06-27T13:04:56.382Z,1.80
2018-06-27T13:07:23.294Z,1.30
2018-06-27T13:09:51.833Z,1.77
2018-06-27T13:12:20.722Z,1.60
2018-06-27T13:14:47.653Z,1.57
2018-06-27T13:17:17.219Z,2.00
2018-06-27T13:19:49.147Z,1.80
2018-06-27T13:22:19.122Z,2.20
2018-06-27T13:24:46.049Z,2.10
2018-06-27T13:27:13.082Z,1.53
2018-06-27T13:29:41.831Z,1.73
2018-06-27T13:32:09.256Z,2.10
2018-06-27T13:34:36.830Z,1.93
2018-06-27T13:37:04.560Z,2.00
2018-06-27T13:39:31.463Z,1.73
2018-06-27T13:42:00.374Z,2.27
2018-06-27T13:44:27.346Z,1.83
2018-06-27T13:46:56.859Z,1.90
2018-06-27T13:49:23.835Z,1.60
2018-06-27T13:51:54.826Z,1.70
2018-06-27T13:54:23.363Z,1.67
2018-06-27T13:56:50.821Z,1.90
2018-06-27T13:59:19.356Z,1.93
2018-06-27T14:01:46.283Z,1.53
2018-06-27T14:04:13.250Z,1.80
2018-06-27T14:06:40.179Z,1.97
2018-06-27T14:09:09.506Z,1.63
2018-06-27T14:11:36.462Z,1.73
2018-06-27T14:14:03.603Z,1.73
2018-06-27T14:16:33.686Z,1.70
2018-06-27T14:19:00.706Z,1.60
2018-06-27T14:21:28.286Z,1.70
2018-06-27T14:23:55.277Z,1.67
2018-06-27T14:26:22.199Z,1.73
2018-06-27T14:28:49.265Z,2.20
2018-06-27T14:31:16.514Z,1.20
2018-06-27T14:33:43.642Z,1.33
2018-06-27T14:36:11.578Z,1.60
2018-06-27T14:38:39.555Z,1.33
2018-06-27T14:41:06.522Z,1.13
2018-06-27T14:43:33.482Z,1.23
2018-06-27T14:46:00.390Z,1.33
2018-06-27T14:48:27.407Z,1.23
2018-06-27T14:50:55.371Z,1.30
2018-06-27T14:53:26.810Z,1.30
2018-06-27T14:55:54.424Z,1.30
2018-06-27T14:58:22.358Z,1.37
2018-06-27T15:00:50.354Z,1.30
2018-06-27T15:03:17.317Z,1.30
2018-06-27T15:05:45.830Z,1.37
2018-06-27T15:08:14.836Z,1.13
2018-06-27T15:10:41.783Z,1.20
2018-06-27T15:13:08.726Z,1.23
2018-06-27T15:15:36.395Z,1.40
2018-06-27T15:18:04.027Z,1.30
2018-06-27T15:20:30.949Z,1.47
2018-06-27T15:22:58.910Z,1.40
2018-06-27T15:25:25.880Z,0.90
2018-06-27T15:27:52.847Z,1.13
2018-06-27T15:30:19.791Z,1.40
2018-06-27T15:32:46.763Z,1.20
2018-06-27T15:35:14.734Z,1.23
2018-06-27T15:37:41.596Z,1.47
2018-06-27T15:40:08.534Z,1.17
2018-06-27T15:42:36.399Z,1.43
2018-06-27T15:45:03.386Z,1.23
2018-06-27T15:47:30.834Z,1.40
2018-06-27T15:49:57.838Z,1.70
2018-06-27T15:52:24.758Z,1.40
2018-06-27T15:54:51.723Z,1.40
2018-06-27T15:57:18.897Z,1.43
2018-06-27T15:59:48.794Z,1.43
2018-06-27T16:02:18.438Z,1.57
2018-06-27T16:04:45.487Z,1.20
2018-06-27T16:07:12.476Z,1.60
2018-06-27T16:09:39.394Z,1.63
2018-06-27T16:12:06.371Z,1.40
2018-06-27T16:14:35.371Z,1.50
2018-06-27T16:17:02.458Z,1.43
2018-06-27T16:19:31.970Z,1.50
2018-06-27T16:21:58.862Z,1.43
2018-06-27T16:24:25.842Z,1.60
2018-06-27T16:26:52.798Z,1.57
2018-06-27T16:29:19.674Z,2.07
2018-06-27T16:31:46.612Z,1.60
2018-06-27T16:34:14.433Z,1.60
2018-06-27T16:36:41.354Z,1.30
2018-06-27T16:39:09.528Z,1.60
2018-06-27T16:41:37.570Z,1.20
2018-06-27T16:44:04.486Z,1.30
2018-06-27T16:46:31.500Z,1.50
2018-06-27T16:48:58.399Z,1.37
2018-06-27T16:51:25.514Z,1.10
2018-06-27T16:53:52.944Z,1.50
2018-06-27T16:56:20.647Z,1.90
2018-06-27T16:58:47.726Z,1.80
2018-06-27T17:01:15.624Z,1.13
2018-06-27T17:03:43.834Z,1.50
2018-06-27T17:06:10.766Z,1.40
2018-06-27T17:08:40.575Z,1.60
2018-06-27T17:11:13.738Z,1.50
2018-06-27T17:13:40.706Z,1.40
2018-06-27T17:16:07.630Z,1.70
2018-06-27T17:18:34.588Z,1.50
2018-06-27T17:21:02.486Z,1.20
2018-06-27T17:23:30.962Z,1.50
2018-06-27T17:26:00.850Z,1.07
2018-06-27T17:28:29.883Z,1.07
2018-06-27T17:30:56.854Z,1.00
2018-06-27T17:33:23.971Z,1.03
2018-06-27T17:35:50.746Z,0.93
2018-06-27T17:38:17.706Z,1.00
2018-06-27T17:40:45.182Z,0.90
2018-06-27T17:43:17.260Z,1.40
2018-06-27T17:45:44.922Z,1.10
2018-06-27T17:48:11.893Z,1.00
2018-06-27T17:50:38.866Z,0.90
2018-06-27T17:53:05.827Z,1.03
2018-06-27T17:55:33.833Z,0.97
2018-06-27T17:58:00.742Z,1.47
2018-06-27T18:00:27.715Z,1.50
2018-06-27T18:02:54.709Z,1.00
2018-06-27T18:05:21.619Z,1.27
2018-06-27T18:07:48.578Z,1.37
2018-06-27T18:10:17.594Z,1.10
2018-06-27T18:12:44.552Z,1.40
2018-06-27T18:15:11.494Z,1.10
2018-06-27T18:17:38.470Z,1.27
2018-06-27T18:20:05.927Z,1.20
2018-06-27T18:22:32.882Z,1.20
2018-06-27T18:24:59.857Z,0.90
2018-06-27T18:27:28.446Z,0.93
2018-06-27T18:29:55.463Z,1.50
2018-06-27T18:32:22.319Z,0.80
2018-06-27T18:34:50.219Z,1.20
2018-06-27T18:37:17.270Z,1.47
2018-06-27T18:39:44.258Z,1.47
2018-06-27T18:42:11.202Z,1.30
2018-06-27T18:44:38.172Z,1.67
2018-06-27T18:47:05.154Z,1.30
2018-06-27T18:49:32.079Z,1.50
2018-06-27T18:51:58.995Z,1.00
2018-06-27T18:54:25.870Z,1.00
2018-06-27T18:56:52.850Z,1.23
2018-06-27T18:59:19.826Z,1.23
2018-06-27T19:01:46.818Z,1.17
2018-06-27T19:04:13.687Z,1.20
2018-06-27T19:06:40.571Z,1.07
2018-06-27T19:09:08.943Z,1.40
2018-06-27T19:11:35.928Z,1.40
2018-06-27T19:14:03.096Z,1.20
2018-06-27T19:16:30.056Z,1.33
2018-06-27T19:18:58.053Z,1.60
2018-06-27T19:21:25.011Z,1.43
2018-06-27T19:23:51.926Z,1.50
2018-06-27T19:26:18.895Z,1.60
2018-06-27T19:28:46.880Z,1.63
2018-06-27T19:31:14.879Z,2.03
2018-06-27T19:33:41.953Z,1.50
2018-06-27T19:36:08.890Z,2.10
2018-06-27T19:38:35.986Z,1.70
2018-06-27T19:41:03.754Z,1.60
2018-06-27T19:43:30.496Z,1.80
2018-06-27T19:45:57.442Z,2.00
2018-06-27T19:48:24.373Z,1.70
2018-06-27T19:50:52.363Z,2.07
2018-06-27T19:53:19.318Z,2.23
2018-06-27T19:55:46.423Z,2.57
2018-06-27T19:58:13.447Z,3.00
2018-06-27T20:00:40.443Z,3.20
2018-06-27T20:03:07.359Z,2.63
2018-06-27T20:05:34.306Z,2.77
2018-06-27T20:08:01.430Z,2.87
2018-06-27T20:10:28.257Z,2.40
2018-06-27T20:12:55.244Z,2.43
2018-06-27T20:15:22.222Z,2.00
2018-06-27T20:17:49.087Z,2.30
2018-06-27T20:20:16.051Z,2.33
2018-06-27T20:22:43.058Z,2.40
2018-06-27T20:25:10.147Z,2.30
2018-06-27T20:27:37.218Z,2.60
2018-06-27T20:30:04.970Z,2.40
2018-06-27T20:32:32.499Z,2.70
2018-06-27T20:34:59.442Z,2.30
2018-06-27T20:37:26.418Z,3.20
2018-06-27T20:39:53.426Z,2.57
2018-06-27T20:42:20.367Z,2.50
2018-06-27T20:44:47.227Z,1.97
2018-06-27T20:47:14.213Z,2.27
2018-06-27T20:49:42.122Z,2.20
2018-06-27T20:52:10.118Z,2.30
2018-06-27T20:54:38.062Z,2.30
2018-06-27T20:57:05.070Z,2.10
2018-06-27T20:59:32.998Z,2.23
2018-06-27T21:01:59.979Z,2.40
2018-06-27T21:04:26.951Z,3.43
2018-06-27T21:06:53.855Z,2.20
2018-06-27T21:09:20.848Z,2.33
2018-06-27T21:11:47.858Z,2.50
2018-06-27T21:14:14.816Z,2.30
2018-06-27T21:16:41.710Z,2.30
2018-06-27T21:19:08.674Z,2.10
2018-06-27T21:21:35.667Z,2.00
2018-06-27T21:24:03.694Z,2.00
2018-06-27T21:26:30.715Z,2.37
2018-06-27T21:28:58.850Z,2.20
2018-06-27T21:31:25.822Z,2.23
2018-06-27T21:33:52.770Z,1.67
2018-06-27T21:36:20.752Z,2.23
2018-06-27T21:38:47.674Z,1.93
2018-06-27T21:41:14.574Z,1.90
2018-06-27T21:43:41.514Z,2.17
2018-06-27T21:46:08.486Z,2.20
2018-06-27T21:48:35.458Z,2.27
2018-06-27T21:51:02.403Z,2.50
2018-06-27T21:53:29.351Z,2.43
2018-06-27T21:55:56.383Z,2.13
2018-06-27T21:58:23.378Z,2.03
2018-06-27T22:00:50.346Z,2.67
2018-06-27T22:03:17.291Z,2.30
2018-06-27T22:05:44.259Z,2.43
2018-06-27T22:08:11.208Z,2.20
2018-06-27T22:10:40.246Z,2.60
2018-06-27T22:13:07.251Z,3.17
2018-06-27T22:15:34.215Z,2.70
2018-06-27T22:18:01.184Z,2.60
2018-06-27T22:20:29.057Z,2.30
2018-06-27T22:22:56.014Z,2.20
2018-06-27T22:25:23.710Z,2.10
2018-06-27T22:27:51.697Z,2.33
2018-06-27T22:30:18.638Z,2.00
2018-06-27T22:32:45.643Z,2.27
2018-06-27T22:35:12.526Z,2.30
2018-06-27T22:37:39.489Z,2.30
2018-06-27T22:40:06.474Z,2.50
2018-06-27T22:42:33.427Z,2.60
2018-06-27T22:45:00.342Z,2.70
2018-06-27T22:47:28.157Z,2.87
2018-06-27T22:49:55.122Z,2.57
2018-06-27T22:52:22.067Z,2.60
2018-06-27T22:54:50.046Z,2.20
2018-06-27T22:57:17.003Z,2.10
2018-06-27T22:59:43.962Z,2.00
2018-06-27T23:02:10.926Z,2.00
2018-06-27T23:04:37.870Z,1.90
2018-06-27T23:07:04.847Z,2.47
2018-06-27T23:09:31.799Z,1.80
2018-06-27T23:11:58.760Z,2.30
2018-06-27T23:14:25.599Z,1.70
2018-06-27T23:16:52.530Z,1.80
2018-06-27T23:19:20.467Z,2.13
2018-06-27T23:21:47.405Z,2.03
2018-06-27T23:24:14.558Z,1.90
2018-06-27T23:26:41.526Z,1.63
2018-06-27T23:29:08.482Z,2.10
2018-06-27T23:31:35.529Z,2.17
2018-06-27T23:34:02.551Z,2.00
2018-06-27T23:36:29.454Z,2.20
2018-06-27T23:38:56.379Z,2.33
2018-06-27T23:41:23.278Z,2.60
2018-06-27T23:43:50.275Z,2.20
2018-06-27T23:46:17.186Z,2.90
2018-06-27T23:48:44.518Z,2.70
2018-06-27T23:51:11.506Z,2.77
2018-06-27T23:53:38.490Z,2.63
2018-06-27T23:56:06.139Z,2.13
2018-06-27T23:58:33.090Z,2.30
